Time;durP1;ratioP1;P1;durP2;ratioP2;P2;SDS_P1;SDS_P2;PMS_P1;PMS_P2;Temp;Humidity;BMP_temperature;BMP_pressure;BME280_temperature;BME280_humidity;BME280_pressure;Samples;Min_cycle;Max_cycle;Signal;HPM_P1;HPM_P2
2022/03/19 09:03:55;;;;;;;30.83;20.17;;;;;;;;;;6183680;22;20407;-91
2022/03/19 09:06:21;;;;;;;27.30;20.35;;;;;;;;;;6188445;23;20005;-88
2022/03/19 09:08:49;;;;;;;24.55;19.40;;;;;;;;;;6186413;23;20005;-88
2022/03/19 10:10:53;;;;;;;29.98;20.95;;;;;;;;;;6252151;23;20026;-95
2022/03/19 10:13:18;;;;;;;28.17;20.27;;;;;;;;;;6250529;22;20019;-91
2022/03/19 10:15:50;;;;;;;29.42;20.50;;;;;;;;;;6252721;23;20339;-89
2022/03/19 10:18:15;;;;;;;28.73;19.65;;;;;;;;;;6230914;23;20011;-91
2022/03/19 10:20:42;;;;;;;27.60;20.20;;;;;;;;;;6256293;23;20058;-95
2022/03/19 10:23:07;;;;;;;30.17;20.88;;;;;;;;;;6259138;22;20083;-92
2022/03/19 10:25:33;;;;;;;25.48;19.73;;;;;;;;;;6253152;22;20000;-91
2022/03/19 10:28:08;;;;;;;24.60;19.38;;;;;;;;;;6247501;23;20011;-91
2022/03/19 10:30:36;;;;;;;24.48;19.33;;;;;;;;;;6246342;23;20423;-91
2022/03/19 10:33:02;;;;;;;26.40;18.40;;;;;;;;;;6246672;23;20493;-92
2022/03/19 10:35:32;;;;;;;26.75;20.30;;;;;;;;;;6247132;23;20090;-92
2022/03/19 10:38:00;;;;;;;25.75;19.95;;;;;;;;;;6247895;23;20040;-90
2022/03/19 10:40:40;;;;;;;27.27;20.30;;;;;;;;;;6248970;23;20015;-95
2022/03/19 10:43:08;;;;;;;25.05;20.08;;;;;;;;;;6246072;23;20004;-89
2022/03/19 10:45:34;;;;;;;22.55;18.30;;;;;;;;;;6246533;22;20008;-89
2022/03/19 10:48:02;;;;;;;27.30;21.88;;;;;;;;;;6248217;22;20011;-91
2022/03/19 10:50:27;;;;;;;27.10;19.88;;;;;;;;;;6247723;22;20007;-89
2022/03/19 10:52:53;;;;;;;32.17;20.13;;;;;;;;;;6247917;23;20326;-92
2022/03/19 10:55:19;;;;;;;25.92;19.63;;;;;;;;;;6246170;23;20004;-89
2022/03/19 10:57:46;;;;;;;28.88;20.67;;;;;;;;;;6246925;22;20057;-89
2022/03/19 11:00:13;;;;;;;31.35;20.85;;;;;;;;;;6245597;23;20004;-90
2022/03/19 11:02:49;;;;;;;26.02;18.13;;;;;;;;;;6248034;22;20097;-90
2022/03/19 11:05:19;;;;;;;26.40;19.42;;;;;;;;;;6266103;22;20012;-90
2022/03/19 11:07:46;;;;;;;26.58;19.77;;;;;;;;;;6250875;22;20007;-90
2022/03/19 11:10:12;;;;;;;29.90;19.33;;;;;;;;;;6277923;22;20000;-91
2022/03/19 11:12:42;;;;;;;25.20;19.58;;;;;;;;;;6279209;22;20430;-87
2022/03/19 11:15:10;;;;;;;25.63;18.80;;;;;;;;;;6251218;22;20169;-90
2022/03/19 11:17:39;;;;;;;26.33;19.63;;;;;;;;;;6251286;22;20000;-89
2022/03/19 11:20:10;;;;;;;23.52;19.33;;;;;;;;;;6251520;22;20106;-90
2022/03/19 11:22:41;;;;;;;27.80;20.08;;;;;;;;;;6254014;22;20000;-87
2022/03/19 11:25:25;;;;;;;29.38;21.27;;;;;;;;;;6254748;22;20027;-89
2022/03/19 11:27:52;;;;;;;30.27;20.35;;;;;;;;;;6253839;22;20006;-90
2022/03/19 11:30:23;;;;;;;25.58;20.45;;;;;;;;;;6252491;22;20016;-90
2022/03/19 11:33:15;;;;;;;30.27;21.13;;;;;;;;;;6252754;22;20008;-87
2022/03/19 11:36:02;;;;;;;30.15;20.45;;;;;;;;;;6247593;22;20038;-89
2022/03/19 11:38:30;;;;;;;28.25;20.27;;;;;;;;;;6279042;22;20070;-87
2022/03/19 11:40:56;;;;;;;28.63;20.23;;;;;;;;;;6253659;22;19999;-91
2022/03/19 11:43:25;;;;;;;31.63;21.25;;;;;;;;;;6251928;22;20000;-90
2022/03/19 11:45:54;;;;;;;26.23;19.98;;;;;;;;;;6251974;22;20117;-93
2022/03/19 11:48:35;;;;;;;;;;;;;;;;;;6252212;22;20007;-94
2022/03/19 11:51:19;;;;;;;26.55;20.48;;;;;;;;;;6251584;22;19949;-92
2022/03/19 11:53:59;;;;;;;29.90;19.77;;;;;;;;;;6251553;22;20008;-93
2022/03/19 11:56:28;;;;;;;27.13;20.27;;;;;;;;;;6251160;22;20004;-91
2022/03/19 11:58:54;;;;;;;26.57;19.93;;;;;;;;;;6251432;22;20003;-94
2022/03/19 12:01:46;;;;;;;28.38;20.23;;;;;;;;;;6259287;22;20440;-92
2022/03/19 12:04:16;;;;;;;30.58;20.20;;;;;;;;;;6249412;23;20039;-93
2022/03/19 12:06:56;;;;;;;28.50;20.40;;;;;;;;;;6253307;23;20004;-93
2022/03/19 12:09:41;;;;;;;23.92;19.70;;;;;;;;;;6250666;23;19996;-93
2022/03/19 12:12:16;;;;;;;27.63;20.25;;;;;;;;;;6248281;23;20007;-91
2022/03/19 12:14:44;;;;;;;26.88;20.80;;;;;;;;;;6251076;22;20004;-93
2022/03/19 12:17:30;;;;;;;27.77;20.23;;;;;;;;;;6252229;22;20000;-96
2022/03/19 12:20:03;;;;;;;27.45;19.58;;;;;;;;;;6246850;23;20004;-95
2022/03/19 12:22:39;;;;;;;25.73;21.05;;;;;;;;;;6246563;23;20423;-95
2022/03/19 12:25:25;;;;;;;27.92;21.85;;;;;;;;;;6248402;23;20005;-96
2022/03/19 12:27:55;;;;;;;25.95;20.52;;;;;;;;;;6247927;23;19996;-95
2022/03/19 12:30:22;;;;;;;26.85;20.27;;;;;;;;;;6247581;23;20011;-95
2022/03/19 12:32:57;;;;;;;29.25;20.85;;;;;;;;;;6246283;23;20010;-96
2022/03/19 12:35:37;;;;;;;26.15;20.60;;;;;;;;;;6246625;23;20004;-96
2022/03/19 12:38:05;;;;;;;29.42;22.17;;;;;;;;;;6246654;23;20000;-95
2022/03/19 12:43:22;;;;;;;26.20;21.10;;;;;;;;;;6250741;23;20074;-96
2022/03/19 12:45:50;;;;;;;28.13;21.23;;;;;;;;;;6249386;23;20079;-96
2022/03/19 12:48:32;;;;;;;28.15;22.13;;;;;;;;;;6249671;23;20045;-96
2022/03/19 12:50:58;;;;;;;28.42;22.88;;;;;;;;;;6249455;23;20327;-96
2022/03/19 12:53:35;;;;;;;31.05;22.35;;;;;;;;;;6249504;23;20012;-96
2022/03/19 12:56:23;;;;;;;26.15;21.58;;;;;;;;;;6248274;23;20011;-96
2022/03/19 12:58:53;;;;;;;25.83;20.40;;;;;;;;;;6277099;22;20036;-95
2022/03/19 13:01:21;;;;;;;29.70;21.17;;;;;;;;;;6258047;23;20000;-96
2022/03/19 13:03:51;;;;;;;30.08;21.45;;;;;;;;;;6274950;22;20012;-96
2022/03/19 13:06:29;;;;;;;26.88;21.55;;;;;;;;;;6248584;23;20012;-95
2022/03/19 13:08:58;;;;;;;30.20;22.02;;;;;;;;;;6249941;23;20119;-96
2022/03/19 13:11:27;;;;;;;26.10;21.08;;;;;;;;;;6250240;23;20004;-96
2022/03/19 13:13:52;;;;;;;26.63;20.63;;;;;;;;;;6253245;23;20008;-95
2022/03/19 13:16:29;;;;;;;25.20;20.05;;;;;;;;;;6260869;23;20036;-95
2022/03/19 13:19:00;;;;;;;26.75;20.05;;;;;;;;;;6249523;23;20004;-96
2022/03/19 13:21:27;;;;;;;28.50;21.30;;;;;;;;;;6247872;23;20004;-96
2022/03/19 13:23:53;;;;;;;26.48;21.35;;;;;;;;;;6248967;23;20446;-96
2022/03/19 13:26:19;;;;;;;24.40;19.90;;;;;;;;;;6252039;23;20012;-93
2022/03/19 13:29:12;;;;;;;27.65;21.42;;;;;;;;;;6250003;22;20005;-95
2022/03/19 13:31:47;;;;;;;28.17;19.98;;;;;;;;;;6241883;23;20031;-92
2022/03/19 13:34:26;;;;;;;28.00;21.90;;;;;;;;;;6247370;23;20004;-90
2022/03/19 13:37:01;;;;;;;24.55;20.90;;;;;;;;;;6248526;23;20032;-93
2022/03/19 13:42:57;;;;;;;26.98;20.73;;;;;;;;;;6206206;22;20064;-96
2022/03/19 13:45:22;;;;;;;27.73;19.77;;;;;;;;;;6170885;23;20009;-96
2022/03/19 13:47:50;;;;;;;27.92;21.25;;;;;;;;;;6164998;23;20008;-96
2022/03/19 13:51:04;;;;;;;27.13;21.70;;;;;;;;;;6172173;23;20001;-96
2022/03/19 20:03:35;;;;;;;14.48;10.32;;;;;;;;;;6199217;22;20043;-85
2022/03/19 20:06:02;;;;;;;13.68;10.15;;;;;;;;;;6215600;23;20013;-86
2022/03/19 20:08:27;;;;;;;17.10;11.68;;;;;;;;;;6216195;23;20422;-86
2022/03/19 20:10:53;;;;;;;17.98;12.52;;;;;;;;;;6214747;23;20005;-87
2022/03/19 20:13:18;;;;;;;16.40;11.02;;;;;;;;;;6216826;23;20063;-89
2022/03/19 20:15:44;;;;;;;13.40;10.48;;;;;;;;;;6216787;23;20063;-86
2022/03/19 20:18:09;;;;;;;12.20;8.77;;;;;;;;;;6215223;23;20031;-86
2022/03/19 20:20:36;;;;;;;12.73;9.85;;;;;;;;;;6214649;23;20442;-86
2022/03/19 20:23:02;;;;;;;14.07;9.85;;;;;;;;;;6214953;23;20005;-87
2022/03/19 20:25:28;;;;;;;20.75;15.95;;;;;;;;;;6214800;23;20015;-87
2022/03/19 20:27:55;;;;;;;15.13;10.77;;;;;;;;;;6216457;23;20427;-87
2022/03/19 20:30:25;;;;;;;20.20;11.43;;;;;;;;;;6216167;23;20011;-87
2022/03/19 20:32:52;;;;;;;15.77;9.98;;;;;;;;;;6216510;23;20000;-88
2022/03/19 20:35:20;;;;;;;17.33;11.90;;;;;;;;;;6216827;23;20028;-87
2022/03/19 20:37:50;;;;;;;13.30;9.27;;;;;;;;;;6215338;23;20327;-90
2022/03/19 20:40:20;;;;;;;13.93;9.25;;;;;;;;;;6215352;23;20028;-91
2022/03/19 20:42:48;;;;;;;13.75;9.73;;;;;;;;;;6215565;23;20008;-86
2022/03/19 20:45:15;;;;;;;11.60;8.88;;;;;;;;;;6215469;23;20072;-89
2022/03/19 20:47:41;;;;;;;14.85;9.75;;;;;;;;;;6216831;23;20075;-87
2022/03/19 20:50:15;;;;;;;13.30;9.50;;;;;;;;;;6216562;23;20412;-89
2022/03/19 20:52:58;;;;;;;18.70;11.45;;;;;;;;;;6215147;23;20008;-87
2022/03/19 20:55:26;;;;;;;18.05;12.48;;;;;;;;;;6215429;23;20024;-88
2022/03/19 20:57:52;;;;;;;17.58;12.15;;;;;;;;;;6215573;23;20009;-87
2022/03/19 21:00:23;;;;;;;17.50;11.35;;;;;;;;;;6216894;23;20017;-88
2022/03/19 21:02:50;;;;;;;16.70;11.18;;;;;;;;;;6223098;23;20042;-84
2022/03/19 21:05:23;;;;;;;16.55;11.90;;;;;;;;;;6221744;23;20004;-85
2022/03/19 21:07:50;;;;;;;19.38;11.73;;;;;;;;;;6249245;23;20016;-85
2022/03/19 21:10:19;;;;;;;14.75;10.57;;;;;;;;;;6249971;23;20004;-89
2022/03/19 21:12:46;;;;;;;15.87;10.63;;;;;;;;;;6222570;23;20095;-87
2022/03/19 21:15:14;;;;;;;14.95;9.10;;;;;;;;;;6249894;23;20049;-89
2022/03/19 21:17:41;;;;;;;13.52;9.90;;;;;;;;;;6223036;23;20327;-87
2022/03/19 21:20:10;;;;;;;14.00;10.00;;;;;;;;;;6249568;23;20014;-89
2022/03/19 21:22:36;;;;;;;15.18;10.85;;;;;;;;;;6224000;23;20007;-88
2022/03/19 21:25:02;;;;;;;13.35;9.93;;;;;;;;;;6250450;23;20037;-88
2022/03/19 21:27:27;;;;;;;14.65;10.57;;;;;;;;;;6251328;23;20004;-85
2022/03/19 21:29:55;;;;;;;15.10;10.88;;;;;;;;;;6223676;23;20011;-89
2022/03/19 21:32:22;;;;;;;19.25;12.77;;;;;;;;;;6249319;23;20004;-86
2022/03/19 21:34:47;;;;;;;18.27;12.50;;;;;;;;;;6249075;23;20003;-87
2022/03/19 21:37:12;;;;;;;15.80;11.23;;;;;;;;;;6221540;23;20450;-85
2022/03/19 21:42:22;;;;;;;18.73;12.13;;;;;;;;;;6249175;23;20096;-85
2022/03/19 21:44:47;;;;;;;16.55;12.07;;;;;;;;;;6249671;23;20000;-86
2022/03/19 21:47:13;;;;;;;27.55;17.23;;;;;;;;;;6221859;23;20008;-84
2022/03/19 21:49:38;;;;;;;23.15;14.77;;;;;;;;;;6249848;23;20336;-89
2022/03/19 21:52:04;;;;;;;17.63;12.48;;;;;;;;;;6223464;23;20109;-88
2022/03/19 21:54:30;;;;;;;18.98;13.02;;;;;;;;;;6222920;23;20011;-89
2022/03/19 21:56:55;;;;;;;22.45;14.70;;;;;;;;;;6249798;23;20011;-88
2022/03/19 21:59:21;;;;;;;18.08;12.65;;;;;;;;;;6248305;23;19997;-86
2022/03/19 22:01:46;;;;;;;19.95;13.05;;;;;;;;;;6222041;23;20077;-88
2022/03/19 22:04:12;;;;;;;20.88;15.13;;;;;;;;;;6248223;23;20012;-88
2022/03/19 22:06:38;;;;;;;23.38;15.05;;;;;;;;;;6248288;23;20419;-89
2022/03/19 22:09:04;;;;;;;21.88;14.07;;;;;;;;;;6220852;23;20007;-87
2022/03/19 22:11:30;;;;;;;20.65;13.25;;;;;;;;;;6247595;23;20331;-87
2022/03/19 22:13:56;;;;;;;18.63;13.48;;;;;;;;;;6247697;23;20431;-87
2022/03/19 22:16:22;;;;;;;17.25;12.98;;;;;;;;;;6221537;23;20004;-87
2022/03/19 22:18:47;;;;;;;21.65;14.23;;;;;;;;;;6249297;23;20087;-87
2022/03/19 22:21:13;;;;;;;21.83;14.05;;;;;;;;;;6222406;23;20057;-88
2022/03/19 22:23:39;;;;;;;20.55;13.15;;;;;;;;;;6247865;23;20004;-87
2022/03/19 22:26:04;;;;;;;14.10;10.43;;;;;;;;;;6248001;23;20420;-87
2022/03/19 22:28:29;;;;;;;21.58;14.90;;;;;;;;;;6248142;23;20000;-87
2022/03/19 22:30:56;;;;;;;19.33;13.57;;;;;;;;;;6248547;23;20130;-87
2022/03/19 22:33:23;;;;;;;20.70;13.23;;;;;;;;;;6221087;23;20032;-87
